Flight Track Log - Related Links

Times and Time Zones

All times are in EDT time to prevent confusion due to time zone crossing. See the EJA831 flight status page for this flight to view local times or setup timezone preferences in your user account.

Time Position Orientation Groundspeed Altitude Reporting Facility
EDT Latitude Longitude Course Direction KTS MPH feet Rate Location/Type
Sat 04:28:25 PM 33.6167 -111.9167 270° West 176 203 2,300  Level Phoenix TRACON
Sat 04:29:08 PM 33.6167 -111.9667 270° West 196 226 4,900 2,094 Climbing Phoenix TRACON
Sat 04:30:11 PM 33.5928 -112.0083 235° Southwest 211 243 6,000 528 Climbing Albuquerque Center
Sat 04:31:13 PM 33.5364 -111.9972 171° South 205 236 6,000 -48 Level Albuquerque Center
Sat 04:32:15 PM 33.4772 -111.9944 178° South 214 246 5,900  Descending Albuquerque Center
Sat 04:33:16 PM 33.4178 -111.9956 181° South 214 246 6,000 49 Climbing Albuquerque Center
Sat 04:34:18 PM 33.3600 -111.9981 182° South 209 241 6,000  Level Albuquerque Center
Sat 04:35:19 PM 33.2919 -112.0003 182° South 206 237 6,000  Level Albuquerque Center
Sat 04:36:21 PM 33.2508 -111.9603 141° Southeast 205 236 6,000 -146 Level Albuquerque Center
Sat 04:37:22 PM 33.2203 -111.9014 122° Southeast 214 246 5,700 -537 Descending Albuquerque Center
Sat 04:38:24 PM 33.2100 -111.8339 100° East 210 242 4,900 -537 Descending Albuquerque Center
Sat 04:39:25 PM 33.2086 -111.7683 91° East 198 228 4,600 -780 Descending Albuquerque Center
Sat 04:40:27 PM 33.2206 -111.7072 77° East 191 220 3,300 -878 Descending Albuquerque Center
Sat 04:41:28 PM 33.2375 -111.6497 71° East 185 213 2,800 -634 Descending Albuquerque Center
Sat 04:42:30 PM 33.2728 -111.6228 33° Northeast 150 173 2,000 -732 Descending Albuquerque Center
Sat 04:43:31 PM 33.3039 -111.6533 321° Northwest 122 140 1,300 -689 Descending Albuquerque Center
Sat 04:45:00 PM 33.3000 -111.6500 North  Level FlightAware Approximate
Sat 04:52:00 PM 33.3078 -111.6555 North  Level Estimated
Sat 04:53:00 PM 33.3078 -111.6555 North  Level Estimated
Sat 04:54:00 PM 33.3078 -111.6555 North  Level Estimated
Sat 04:55:00 PM 33.3078 -111.6555 North  Level Estimated

Login

Don't have an account? Register now (free) for customized features, flight alerts, and more!